sensor_id;sensor_type;location;lat;lon;timestamp;P1;durP1;ratioP1;P2;durP2;ratioP2
39218;SDS011;24934;52.752;6.964;2023-07-31T00:00:26;17.17;;;15.73;;
39218;SDS011;24934;52.752;6.964;2023-07-31T00:02:52;18.52;;;16.92;;
39218;SDS011;24934;52.752;6.964;2023-07-31T00:05:19;18.05;;;16.58;;
39218;SDS011;24934;52.752;6.964;2023-07-31T00:07:44;18.60;;;17.08;;
39218;SDS011;24934;52.752;6.964;2023-07-31T00:10:10;19.08;;;17.10;;
39218;SDS011;24934;52.752;6.964;2023-07-31T00:12:39;19.35;;;17.58;;
39218;SDS011;24934;52.752;6.964;2023-07-31T00:15:07;19.08;;;17.42;;
39218;SDS011;24934;52.752;6.964;2023-07-31T00:17:32;17.65;;;16.15;;
39218;SDS011;24934;52.752;6.964;2023-07-31T00:19:58;18.58;;;16.98;;
39218;SDS011;24934;52.752;6.964;2023-07-31T00:22:24;18.42;;;16.50;;
39218;SDS011;24934;52.752;6.964;2023-07-31T00:24:52;18.42;;;16.60;;
39218;SDS011;24934;52.752;6.964;2023-07-31T00:27:18;19.00;;;17.35;;
39218;SDS011;24934;52.752;6.964;2023-07-31T00:29:44;18.92;;;17.15;;
39218;SDS011;24934;52.752;6.964;2023-07-31T00:32:09;19.13;;;17.50;;
39218;SDS011;24934;52.752;6.964;2023-07-31T00:34:35;19.27;;;17.55;;
39218;SDS011;24934;52.752;6.964;2023-07-31T00:37:00;19.05;;;17.35;;
39218;SDS011;24934;52.752;6.964;2023-07-31T00:39:26;19.92;;;18.20;;
39218;SDS011;24934;52.752;6.964;2023-07-31T00:41:52;19.33;;;17.73;;
39218;SDS011;24934;52.752;6.964;2023-07-31T00:44:17;18.98;;;17.42;;
39218;SDS011;24934;52.752;6.964;2023-07-31T00:46:43;18.65;;;16.88;;
39218;SDS011;24934;52.752;6.964;2023-07-31T00:49:12;18.50;;;17.00;;
39218;SDS011;24934;52.752;6.964;2023-07-31T00:51:38;19.27;;;17.67;;
39218;SDS011;24934;52.752;6.964;2023-07-31T00:54:03;18.55;;;16.75;;
39218;SDS011;24934;52.752;6.964;2023-07-31T00:56:30;19.35;;;17.73;;
39218;SDS011;24934;52.752;6.964;2023-07-31T00:58:56;19.25;;;17.55;;
39218;SDS011;24934;52.752;6.964;2023-07-31T01:01:21;19.02;;;17.45;;
39218;SDS011;24934;52.752;6.964;2023-07-31T01:03:47;18.70;;;17.10;;
39218;SDS011;24934;52.752;6.964;2023-07-31T01:06:26;18.17;;;16.67;;
39218;SDS011;24934;52.752;6.964;2023-07-31T01:11:56;18.13;;;16.75;;
39218;SDS011;24934;52.752;6.964;2023-07-31T01:14:25;18.67;;;17.05;;
39218;SDS011;24934;52.752;6.964;2023-07-31T01:16:50;18.27;;;16.73;;
39218;SDS011;24934;52.752;6.964;2023-07-31T01:19:17;18.60;;;17.10;;
39218;SDS011;24934;52.752;6.964;2023-07-31T01:22:05;18.42;;;17.00;;
39218;SDS011;24934;52.752;6.964;2023-07-31T01:27:42;17.98;;;16.48;;
39218;SDS011;24934;52.752;6.964;2023-07-31T01:30:17;16.77;;;15.40;;
39218;SDS011;24934;52.752;6.964;2023-07-31T01:32:50;17.95;;;16.35;;
39218;SDS011;24934;52.752;6.964;2023-07-31T01:35:18;16.95;;;15.75;;
39218;SDS011;24934;52.752;6.964;2023-07-31T01:37:43;18.55;;;17.10;;
39218;SDS011;24934;52.752;6.964;2023-07-31T01:40:10;17.65;;;16.38;;
39218;SDS011;24934;52.752;6.964;2023-07-31T01:42:36;17.67;;;16.38;;
39218;SDS011;24934;52.752;6.964;2023-07-31T01:45:01;17.10;;;15.77;;
39218;SDS011;24934;52.752;6.964;2023-07-31T01:47:27;16.95;;;15.75;;
39218;SDS011;24934;52.752;6.964;2023-07-31T01:49:53;16.80;;;15.55;;
39218;SDS011;24934;52.752;6.964;2023-07-31T01:52:18;16.13;;;15.02;;
39218;SDS011;24934;52.752;6.964;2023-07-31T01:54:44;16.58;;;15.38;;
39218;SDS011;24934;52.752;6.964;2023-07-31T01:57:09;17.25;;;15.77;;
39218;SDS011;24934;52.752;6.964;2023-07-31T01:59:35;17.20;;;15.80;;
39218;SDS011;24934;52.752;6.964;2023-07-31T02:02:01;16.85;;;15.55;;
39218;SDS011;24934;52.752;6.964;2023-07-31T02:04:29;18.13;;;16.83;;
39218;SDS011;24934;52.752;6.964;2023-07-31T02:06:54;16.88;;;15.68;;
39218;SDS011;24934;52.752;6.964;2023-07-31T02:09:20;17.17;;;15.90;;
39218;SDS011;24934;52.752;6.964;2023-07-31T02:11:45;17.15;;;15.95;;
39218;SDS011;24934;52.752;6.964;2023-07-31T02:14:11;17.92;;;16.63;;
39218;SDS011;24934;52.752;6.964;2023-07-31T02:16:37;17.60;;;16.25;;
39218;SDS011;24934;52.752;6.964;2023-07-31T02:19:02;17.58;;;16.25;;
39218;SDS011;24934;52.752;6.964;2023-07-31T02:21:28;18.08;;;16.67;;
39218;SDS011;24934;52.752;6.964;2023-07-31T02:23:53;18.63;;;17.30;;
39218;SDS011;24934;52.752;6.964;2023-07-31T02:26:19;18.27;;;16.85;;
39218;SDS011;24934;52.752;6.964;2023-07-31T02:28:45;19.52;;;17.63;;
39218;SDS011;24934;52.752;6.964;2023-07-31T02:31:10;18.50;;;17.10;;
39218;SDS011;24934;52.752;6.964;2023-07-31T02:33:36;18.40;;;17.00;;
39218;SDS011;24934;52.752;6.964;2023-07-31T02:36:02;18.63;;;17.23;;
39218;SDS011;24934;52.752;6.964;2023-07-31T02:38:27;18.10;;;16.80;;
39218;SDS011;24934;52.752;6.964;2023-07-31T02:40:53;18.30;;;17.00;;
39218;SDS011;24934;52.752;6.964;2023-07-31T02:43:18;18.75;;;17.38;;
39218;SDS011;24934;52.752;6.964;2023-07-31T02:45:44;18.85;;;17.50;;
39218;SDS011;24934;52.752;6.964;2023-07-31T02:48:10;19.52;;;17.95;;
39218;SDS011;24934;52.752;6.964;2023-07-31T02:50:35;18.42;;;17.08;;
39218;SDS011;24934;52.752;6.964;2023-07-31T02:53:01;20.40;;;18.80;;
39218;SDS011;24934;52.752;6.964;2023-07-31T02:55:27;18.50;;;17.10;;
39218;SDS011;24934;52.752;6.964;2023-07-31T02:57:53;20.20;;;18.70;;
39218;SDS011;24934;52.752;6.964;2023-07-31T03:00:18;19.30;;;17.63;;
39218;SDS011;24934;52.752;6.964;2023-07-31T03:02:44;18.70;;;17.20;;
39218;SDS011;24934;52.752;6.964;2023-07-31T03:05:10;18.35;;;16.98;;
39218;SDS011;24934;52.752;6.964;2023-07-31T03:07:35;18.98;;;17.48;;
39218;SDS011;24934;52.752;6.964;2023-07-31T03:10:01;21.17;;;19.48;;
39218;SDS011;24934;52.752;6.964;2023-07-31T03:12:27;20.77;;;19.10;;
39218;SDS011;24934;52.752;6.964;2023-07-31T03:14:55;19.40;;;17.80;;
39218;SDS011;24934;52.752;6.964;2023-07-31T03:17:20;20.15;;;18.63;;
39218;SDS011;24934;52.752;6.964;2023-07-31T03:19:46;18.92;;;17.52;;
39218;SDS011;24934;52.752;6.964;2023-07-31T03:22:12;19.05;;;17.65;;
39218;SDS011;24934;52.752;6.964;2023-07-31T03:24:37;18.60;;;17.20;;
39218;SDS011;24934;52.752;6.964;2023-07-31T03:27:03;18.70;;;17.20;;
39218;SDS011;24934;52.752;6.964;2023-07-31T03:29:29;19.08;;;17.58;;
39218;SDS011;24934;52.752;6.964;2023-07-31T03:31:55;18.70;;;17.30;;
39218;SDS011;24934;52.752;6.964;2023-07-31T03:34:20;18.23;;;16.92;;
39218;SDS011;24934;52.752;6.964;2023-07-31T03:36:46;18.08;;;16.77;;
39218;SDS011;24934;52.752;6.964;2023-07-31T03:39:12;18.00;;;16.70;;
39218;SDS011;24934;52.752;6.964;2023-07-31T03:41:38;19.60;;;18.05;;
39218;SDS011;24934;52.752;6.964;2023-07-31T03:44:03;17.58;;;16.27;;
39218;SDS011;24934;52.752;6.964;2023-07-31T03:46:29;19.15;;;17.65;;
39218;SDS011;24934;52.752;6.964;2023-07-31T03:48:55;18.35;;;16.88;;
39218;SDS011;24934;52.752;6.964;2023-07-31T03:51:20;18.98;;;17.42;;
39218;SDS011;24934;52.752;6.964;2023-07-31T03:53:46;18.02;;;16.63;;
39218;SDS011;24934;52.752;6.964;2023-07-31T03:56:11;18.88;;;17.38;;
39218;SDS011;24934;52.752;6.964;2023-07-31T03:58:38;19.20;;;17.70;;
39218;SDS011;24934;52.752;6.964;2023-07-31T04:01:04;17.88;;;16.48;;
39218;SDS011;24934;52.752;6.964;2023-07-31T04:03:31;19.05;;;17.45;;
39218;SDS011;24934;52.752;6.964;2023-07-31T04:05:56;18.27;;;16.77;;
39218;SDS011;24934;52.752;6.964;2023-07-31T04:08:22;17.90;;;16.50;;
39218;SDS011;24934;52.752;6.964;2023-07-31T04:10:48;18.90;;;17.38;;
39218;SDS011;24934;52.752;6.964;2023-07-31T04:13:14;18.95;;;17.45;;
39218;SDS011;24934;52.752;6.964;2023-07-31T04:15:40;19.80;;;18.10;;
39218;SDS011;24934;52.752;6.964;2023-07-31T04:18:06;19.00;;;17.33;;
39218;SDS011;24934;52.752;6.964;2023-07-31T04:20:31;18.23;;;16.75;;
39218;SDS011;24934;52.752;6.964;2023-07-31T04:22:57;18.48;;;16.85;;
39218;SDS011;24934;52.752;6.964;2023-07-31T04:25:23;18.00;;;16.55;;
39218;SDS011;24934;52.752;6.964;2023-07-31T04:27:49;18.10;;;16.60;;
39218;SDS011;24934;52.752;6.964;2023-07-31T04:30:14;18.35;;;16.75;;
39218;SDS011;24934;52.752;6.964;2023-07-31T04:32:40;17.02;;;15.73;;
39218;SDS011;24934;52.752;6.964;2023-07-31T04:35:06;16.98;;;15.68;;
39218;SDS011;24934;52.752;6.964;2023-07-31T04:37:32;17.10;;;15.70;;
39218;SDS011;24934;52.752;6.964;2023-07-31T04:39:57;16.85;;;15.52;;
39218;SDS011;24934;52.752;6.964;2023-07-31T04:42:23;17.00;;;15.55;;
39218;SDS011;24934;52.752;6.964;2023-07-31T04:44:48;17.48;;;15.88;;
39218;SDS011;24934;52.752;6.964;2023-07-31T04:47:14;17.60;;;16.13;;
39218;SDS011;24934;52.752;6.964;2023-07-31T04:49:40;16.90;;;15.50;;
39218;SDS011;24934;52.752;6.964;2023-07-31T04:52:06;17.63;;;16.00;;
39218;SDS011;24934;52.752;6.964;2023-07-31T04:54:31;18.90;;;16.45;;
39218;SDS011;24934;52.752;6.964;2023-07-31T04:56:57;21.23;;;19.02;;
39218;SDS011;24934;52.752;6.964;2023-07-31T04:59:23;23.10;;;18.10;;
39218;SDS011;24934;52.752;6.964;2023-07-31T05:01:48;29.25;;;19.92;;
39218;SDS011;24934;52.752;6.964;2023-07-31T05:04:14;30.38;;;21.23;;
39218;SDS011;24934;52.752;6.964;2023-07-31T05:06:40;36.10;;;21.17;;
39218;SDS011;24934;52.752;6.964;2023-07-31T05:09:06;35.83;;;21.55;;
39218;SDS011;24934;52.752;6.964;2023-07-31T05:11:34;33.60;;;22.20;;
39218;SDS011;24934;52.752;6.964;2023-07-31T05:14:00;37.67;;;22.67;;
39218;SDS011;24934;52.752;6.964;2023-07-31T05:16:25;38.72;;;22.23;;
39218;SDS011;24934;52.752;6.964;2023-07-31T05:18:51;33.47;;;21.77;;
39218;SDS011;24934;52.752;6.964;2023-07-31T05:21:17;42.92;;;24.10;;
39218;SDS011;24934;52.752;6.964;2023-07-31T05:23:42;43.10;;;24.80;;
39218;SDS011;24934;52.752;6.964;2023-07-31T05:26:08;40.92;;;24.95;;
39218;SDS011;24934;52.752;6.964;2023-07-31T05:28:37;39.80;;;24.45;;
39218;SDS011;24934;52.752;6.964;2023-07-31T05:31:03;49.88;;;26.30;;
39218;SDS011;24934;52.752;6.964;2023-07-31T05:33:30;53.08;;;27.73;;
39218;SDS011;24934;52.752;6.964;2023-07-31T05:35:56;51.35;;;26.60;;
39218;SDS011;24934;52.752;6.964;2023-07-31T05:38:22;52.55;;;26.33;;
39218;SDS011;24934;52.752;6.964;2023-07-31T05:40:48;52.72;;;26.92;;
39218;SDS011;24934;52.752;6.964;2023-07-31T05:43:14;59.50;;;27.63;;
39218;SDS011;24934;52.752;6.964;2023-07-31T05:45:39;55.15;;;26.95;;
39218;SDS011;24934;52.752;6.964;2023-07-31T05:48:06;57.25;;;27.75;;
39218;SDS011;24934;52.752;6.964;2023-07-31T05:50:32;60.22;;;27.98;;
39218;SDS011;24934;52.752;6.964;2023-07-31T05:52:58;63.97;;;28.52;;
39218;SDS011;24934;52.752;6.964;2023-07-31T05:55:24;53.38;;;26.05;;
39218;SDS011;24934;52.752;6.964;2023-07-31T05:57:51;45.75;;;25.45;;
39218;SDS011;24934;52.752;6.964;2023-07-31T06:00:18;54.13;;;26.17;;
39218;SDS011;24934;52.752;6.964;2023-07-31T06:02:43;56.38;;;26.65;;
39218;SDS011;24934;52.752;6.964;2023-07-31T06:05:09;53.63;;;26.60;;
39218;SDS011;24934;52.752;6.964;2023-07-31T06:07:35;49.10;;;25.92;;
39218;SDS011;24934;52.752;6.964;2023-07-31T06:10:01;45.45;;;26.88;;
39218;SDS011;24934;52.752;6.964;2023-07-31T06:12:30;54.42;;;27.98;;
39218;SDS011;24934;52.752;6.964;2023-07-31T06:14:59;55.40;;;29.42;;
39218;SDS011;24934;52.752;6.964;2023-07-31T06:17:24;56.50;;;29.38;;
39218;SDS011;24934;52.752;6.964;2023-07-31T06:19:51;53.72;;;27.25;;
39218;SDS011;24934;52.752;6.964;2023-07-31T06:22:17;57.05;;;28.58;;
39218;SDS011;24934;52.752;6.964;2023-07-31T06:24:43;54.58;;;28.08;;
39218;SDS011;24934;52.752;6.964;2023-07-31T06:27:08;54.75;;;27.70;;
39218;SDS011;24934;52.752;6.964;2023-07-31T06:29:34;51.80;;;27.05;;
39218;SDS011;24934;52.752;6.964;2023-07-31T06:32:00;49.03;;;26.60;;
39218;SDS011;24934;52.752;6.964;2023-07-31T06:34:26;55.63;;;27.33;;
39218;SDS011;24934;52.752;6.964;2023-07-31T06:36:51;48.53;;;26.90;;
39218;SDS011;24934;52.752;6.964;2023-07-31T06:39:17;59.17;;;26.88;;
39218;SDS011;24934;52.752;6.964;2023-07-31T06:41:43;48.25;;;26.77;;
39218;SDS011;24934;52.752;6.964;2023-07-31T06:44:09;51.45;;;25.58;;
39218;SDS011;24934;52.752;6.964;2023-07-31T06:46:35;41.35;;;25.42;;
39218;SDS011;24934;52.752;6.964;2023-07-31T06:49:00;50.35;;;25.13;;
39218;SDS011;24934;52.752;6.964;2023-07-31T06:51:26;56.80;;;25.52;;
39218;SDS011;24934;52.752;6.964;2023-07-31T06:53:51;48.63;;;25.55;;
39218;SDS011;24934;52.752;6.964;2023-07-31T06:56:17;47.55;;;24.63;;
39218;SDS011;24934;52.752;6.964;2023-07-31T06:58:43;46.03;;;24.52;;
39218;SDS011;24934;52.752;6.964;2023-07-31T07:01:13;43.38;;;23.45;;
39218;SDS011;24934;52.752;6.964;2023-07-31T07:03:39;46.25;;;23.63;;
39218;SDS011;24934;52.752;6.964;2023-07-31T07:06:05;45.75;;;23.95;;
39218;SDS011;24934;52.752;6.964;2023-07-31T07:08:31;50.53;;;22.88;;
39218;SDS011;24934;52.752;6.964;2023-07-31T07:10:56;44.55;;;23.08;;
39218;SDS011;24934;52.752;6.964;2023-07-31T07:13:22;43.78;;;23.45;;
39218;SDS011;24934;52.752;6.964;2023-07-31T07:15:48;43.58;;;23.58;;
39218;SDS011;24934;52.752;6.964;2023-07-31T07:18:14;42.95;;;23.48;;
39218;SDS011;24934;52.752;6.964;2023-07-31T07:20:40;37.10;;;24.55;;
39218;SDS011;24934;52.752;6.964;2023-07-31T07:23:11;39.67;;;24.80;;
39218;SDS011;24934;52.752;6.964;2023-07-31T07:25:37;43.92;;;25.42;;
39218;SDS011;24934;52.752;6.964;2023-07-31T07:28:03;44.33;;;26.45;;
39218;SDS011;24934;52.752;6.964;2023-07-31T07:30:29;41.97;;;26.10;;
39218;SDS011;24934;52.752;6.964;2023-07-31T07:32:54;39.50;;;25.67;;
39218;SDS011;24934;52.752;6.964;2023-07-31T07:35:20;35.38;;;24.38;;
39218;SDS011;24934;52.752;6.964;2023-07-31T07:37:48;36.42;;;24.60;;
39218;SDS011;24934;52.752;6.964;2023-07-31T07:40:15;40.47;;;24.42;;
39218;SDS011;24934;52.752;6.964;2023-07-31T07:42:41;36.38;;;23.42;;
39218;SDS011;24934;52.752;6.964;2023-07-31T07:45:07;33.88;;;23.27;;
39218;SDS011;24934;52.752;6.964;2023-07-31T07:47:33;32.65;;;22.75;;
39218;SDS011;24934;52.752;6.964;2023-07-31T07:49:58;32.53;;;23.23;;
39218;SDS011;24934;52.752;6.964;2023-07-31T07:52:24;39.35;;;22.80;;
39218;SDS011;24934;52.752;6.964;2023-07-31T07:54:50;29.60;;;22.73;;
39218;SDS011;24934;52.752;6.964;2023-07-31T07:57:16;27.58;;;22.08;;
39218;SDS011;24934;52.752;6.964;2023-07-31T07:59:41;37.15;;;22.15;;
39218;SDS011;24934;52.752;6.964;2023-07-31T08:02:07;25.10;;;20.85;;
39218;SDS011;24934;52.752;6.964;2023-07-31T08:04:33;24.45;;;20.27;;
39218;SDS011;24934;52.752;6.964;2023-07-31T08:06:58;24.75;;;19.23;;
39218;SDS011;24934;52.752;6.964;2023-07-31T08:09:24;24.20;;;19.38;;
39218;SDS011;24934;52.752;6.964;2023-07-31T08:11:49;26.00;;;20.17;;
39218;SDS011;24934;52.752;6.964;2023-07-31T08:14:15;25.00;;;20.20;;
39218;SDS011;24934;52.752;6.964;2023-07-31T08:16:41;23.83;;;19.65;;
39218;SDS011;24934;52.752;6.964;2023-07-31T08:19:07;26.00;;;20.58;;
39218;SDS011;24934;52.752;6.964;2023-07-31T08:21:33;26.45;;;19.83;;
39218;SDS011;24934;52.752;6.964;2023-07-31T08:23:58;21.13;;;18.80;;
39218;SDS011;24934;52.752;6.964;2023-07-31T08:26:24;23.88;;;19.40;;
39218;SDS011;24934;52.752;6.964;2023-07-31T08:28:49;21.10;;;19.00;;
39218;SDS011;24934;52.752;6.964;2023-07-31T08:31:15;22.63;;;18.80;;
39218;SDS011;24934;52.752;6.964;2023-07-31T08:33:41;21.27;;;18.63;;
39218;SDS011;24934;52.752;6.964;2023-07-31T08:36:06;21.05;;;18.85;;
39218;SDS011;24934;52.752;6.964;2023-07-31T08:38:32;20.63;;;18.45;;
39218;SDS011;24934;52.752;6.964;2023-07-31T08:40:58;21.02;;;18.25;;
39218;SDS011;24934;52.752;6.964;2023-07-31T08:43:27;21.83;;;18.33;;
39218;SDS011;24934;52.752;6.964;2023-07-31T08:45:52;19.35;;;17.45;;
39218;SDS011;24934;52.752;6.964;2023-07-31T08:48:21;19.70;;;17.70;;
39218;SDS011;24934;52.752;6.964;2023-07-31T08:50:48;19.10;;;17.08;;
39218;SDS011;24934;52.752;6.964;2023-07-31T08:53:16;18.80;;;17.05;;
39218;SDS011;24934;52.752;6.964;2023-07-31T08:55:42;19.40;;;17.40;;
39218;SDS011;24934;52.752;6.964;2023-07-31T08:58:09;17.92;;;16.23;;
39218;SDS011;24934;52.752;6.964;2023-07-31T09:00:37;18.83;;;17.13;;
39218;SDS011;24934;52.752;6.964;2023-07-31T09:03:23;18.48;;;16.88;;
39218;SDS011;24934;52.752;6.964;2023-07-31T09:05:50;19.10;;;17.23;;
39218;SDS011;24934;52.752;6.964;2023-07-31T09:08:20;18.75;;;17.10;;
39218;SDS011;24934;52.752;6.964;2023-07-31T09:10:47;18.70;;;17.17;;
39218;SDS011;24934;52.752;6.964;2023-07-31T09:13:16;19.35;;;17.55;;
39218;SDS011;24934;52.752;6.964;2023-07-31T09:15:44;20.10;;;18.20;;
39218;SDS011;24934;52.752;6.964;2023-07-31T09:18:10;20.13;;;18.42;;
39218;SDS011;24934;52.752;6.964;2023-07-31T09:20:36;21.75;;;19.73;;
39218;SDS011;24934;52.752;6.964;2023-07-31T09:25:33;21.63;;;19.75;;
39218;SDS011;24934;52.752;6.964;2023-07-31T09:28:03;20.55;;;18.85;;
39218;SDS011;24934;52.752;6.964;2023-07-31T09:30:44;19.90;;;18.25;;
39218;SDS011;24934;52.752;6.964;2023-07-31T09:33:11;18.80;;;17.30;;
39218;SDS011;24934;52.752;6.964;2023-07-31T09:35:37;19.52;;;17.98;;
39218;SDS011;24934;52.752;6.964;2023-07-31T09:38:06;19.55;;;17.85;;
39218;SDS011;24934;52.752;6.964;2023-07-31T09:40:35;19.15;;;17.60;;
39218;SDS011;24934;52.752;6.964;2023-07-31T09:43:06;18.67;;;17.23;;
39218;SDS011;24934;52.752;6.964;2023-07-31T09:45:42;18.48;;;16.95;;
39218;SDS011;24934;52.752;6.964;2023-07-31T09:48:09;18.48;;;16.98;;
39218;SDS011;24934;52.752;6.964;2023-07-31T09:50:43;18.05;;;16.65;;
39218;SDS011;24934;52.752;6.964;2023-07-31T09:53:11;18.23;;;16.73;;
39218;SDS011;24934;52.752;6.964;2023-07-31T09:55:38;18.40;;;16.90;;
39218;SDS011;24934;52.752;6.964;2023-07-31T09:58:06;17.70;;;16.30;;
39218;SDS011;24934;52.752;6.964;2023-07-31T10:00:33;18.30;;;16.88;;
39218;SDS011;24934;52.752;6.964;2023-07-31T10:03:01;18.40;;;17.00;;
39218;SDS011;24934;52.752;6.964;2023-07-31T10:05:30;17.88;;;16.48;;
39218;SDS011;24934;52.752;6.964;2023-07-31T10:08:00;18.27;;;16.77;;
39218;SDS011;24934;52.752;6.964;2023-07-31T10:10:25;17.70;;;16.20;;
39218;SDS011;24934;52.752;6.964;2023-07-31T10:12:53;16.70;;;15.50;;
39218;SDS011;24934;52.752;6.964;2023-07-31T10:15:19;16.10;;;15.00;;
39218;SDS011;24934;52.752;6.964;2023-07-31T10:17:49;15.80;;;14.60;;
39218;SDS011;24934;52.752;6.964;2023-07-31T10:20:15;17.25;;;16.05;;
39218;SDS011;24934;52.752;6.964;2023-07-31T10:22:42;18.98;;;17.48;;
39218;SDS011;24934;52.752;6.964;2023-07-31T10:25:08;18.52;;;17.13;;
39218;SDS011;24934;52.752;6.964;2023-07-31T10:27:35;19.40;;;17.70;;
39218;SDS011;24934;52.752;6.964;2023-07-31T10:30:03;19.30;;;17.80;;
39218;SDS011;24934;52.752;6.964;2023-07-31T10:32:31;19.08;;;17.58;;
39218;SDS011;24934;52.752;6.964;2023-07-31T10:34:57;18.10;;;16.70;;
39218;SDS011;24934;52.752;6.964;2023-07-31T10:40:03;18.13;;;16.73;;
39218;SDS011;24934;52.752;6.964;2023-07-31T10:42:37;17.05;;;15.80;;
39218;SDS011;24934;52.752;6.964;2023-07-31T10:45:09;16.52;;;15.23;;
39218;SDS011;24934;52.752;6.964;2023-07-31T10:47:44;16.65;;;15.45;;
39218;SDS011;24934;52.752;6.964;2023-07-31T10:52:47;16.20;;;15.10;;
39218;SDS011;24934;52.752;6.964;2023-07-31T10:55:24;15.93;;;14.82;;
39218;SDS011;24934;52.752;6.964;2023-07-31T10:57:52;15.10;;;14.10;;
39218;SDS011;24934;52.752;6.964;2023-07-31T11:00:26;15.52;;;14.30;;
39218;SDS011;24934;52.752;6.964;2023-07-31T11:03:00;15.55;;;14.55;;
39218;SDS011;24934;52.752;6.964;2023-07-31T11:10:45;14.82;;;13.73;;
39218;SDS011;24934;52.752;6.964;2023-07-31T11:13:12;14.82;;;13.77;;
39218;SDS011;24934;52.752;6.964;2023-07-31T11:15:38;14.82;;;13.73;;
39218;SDS011;24934;52.752;6.964;2023-07-31T11:18:04;15.15;;;14.15;;
39218;SDS011;24934;52.752;6.964;2023-07-31T11:20:31;15.50;;;14.40;;
39218;SDS011;24934;52.752;6.964;2023-07-31T11:22:59;15.20;;;14.10;;
39218;SDS011;24934;52.752;6.964;2023-07-31T11:25:31;14.60;;;13.45;;
39218;SDS011;24934;52.752;6.964;2023-07-31T11:28:02;14.75;;;13.65;;
39218;SDS011;24934;52.752;6.964;2023-07-31T11:30:28;14.65;;;13.63;;
39218;SDS011;24934;52.752;6.964;2023-07-31T11:32:55;14.45;;;13.45;;
39218;SDS011;24934;52.752;6.964;2023-07-31T11:35:21;14.20;;;13.20;;
39218;SDS011;24934;52.752;6.964;2023-07-31T11:37:48;14.55;;;13.55;;
39218;SDS011;24934;52.752;6.964;2023-07-31T11:40:14;14.13;;;13.13;;
39218;SDS011;24934;52.752;6.964;2023-07-31T11:42:40;15.45;;;14.10;;
39218;SDS011;24934;52.752;6.964;2023-07-31T11:45:09;15.52;;;14.43;;
39218;SDS011;24934;52.752;6.964;2023-07-31T11:47:35;15.30;;;14.27;;
39218;SDS011;24934;52.752;6.964;2023-07-31T11:50:03;16.42;;;15.02;;
39218;SDS011;24934;52.752;6.964;2023-07-31T11:52:32;15.63;;;14.52;;
39218;SDS011;24934;52.752;6.964;2023-07-31T11:55:02;16.48;;;15.27;;
39218;SDS011;24934;52.752;6.964;2023-07-31T11:57:28;16.40;;;15.10;;
39218;SDS011;24934;52.752;6.964;2023-07-31T11:59:54;16.40;;;15.20;;
39218;SDS011;24934;52.752;6.964;2023-07-31T12:02:21;19.35;;;17.85;;
39218;SDS011;24934;52.752;6.964;2023-07-31T12:04:47;20.70;;;19.00;;
39218;SDS011;24934;52.752;6.964;2023-07-31T12:07:13;20.38;;;18.77;;
39218;SDS011;24934;52.752;6.964;2023-07-31T12:09:54;22.02;;;20.17;;
39218;SDS011;24934;52.752;6.964;2023-07-31T12:12:20;22.30;;;20.40;;
39218;SDS011;24934;52.752;6.964;2023-07-31T12:14:47;19.67;;;18.17;;
39218;SDS011;24934;52.752;6.964;2023-07-31T12:17:13;20.98;;;19.27;;
39218;SDS011;24934;52.752;6.964;2023-07-31T12:19:40;20.48;;;18.88;;
39218;SDS011;24934;52.752;6.964;2023-07-31T12:22:12;18.55;;;17.15;;
39218;SDS011;24934;52.752;6.964;2023-07-31T12:24:39;17.80;;;16.35;;
39218;SDS011;24934;52.752;6.964;2023-07-31T12:27:13;20.40;;;18.80;;
39218;SDS011;24934;52.752;6.964;2023-07-31T12:29:41;22.05;;;20.25;;
39218;SDS011;24934;52.752;6.964;2023-07-31T12:32:23;23.42;;;21.45;;
39218;SDS011;24934;52.752;6.964;2023-07-31T12:34:54;23.92;;;21.83;;
39218;SDS011;24934;52.752;6.964;2023-07-31T12:37:23;25.30;;;22.67;;
39218;SDS011;24934;52.752;6.964;2023-07-31T12:39:48;24.48;;;22.27;;
39218;SDS011;24934;52.752;6.964;2023-07-31T12:42:14;24.55;;;22.42;;
39218;SDS011;24934;52.752;6.964;2023-07-31T12:44:42;25.83;;;23.52;;
39218;SDS011;24934;52.752;6.964;2023-07-31T12:47:08;25.25;;;22.95;;
39218;SDS011;24934;52.752;6.964;2023-07-31T12:49:33;24.98;;;22.63;;
39218;SDS011;24934;52.752;6.964;2023-07-31T12:51:59;26.23;;;23.58;;
39218;SDS011;24934;52.752;6.964;2023-07-31T12:54:25;26.95;;;24.33;;
39218;SDS011;24934;52.752;6.964;2023-07-31T12:56:50;25.45;;;23.02;;
39218;SDS011;24934;52.752;6.964;2023-07-31T12:59:16;25.48;;;23.08;;
39218;SDS011;24934;52.752;6.964;2023-07-31T13:01:41;28.55;;;22.05;;
39218;SDS011;24934;52.752;6.964;2023-07-31T13:04:07;23.70;;;21.30;;
39218;SDS011;24934;52.752;6.964;2023-07-31T13:06:33;19.90;;;18.10;;
39218;SDS011;24934;52.752;6.964;2023-07-31T13:08:59;20.63;;;18.83;;
39218;SDS011;24934;52.752;6.964;2023-07-31T13:11:25;21.20;;;19.10;;
39218;SDS011;24934;52.752;6.964;2023-07-31T13:13:50;21.73;;;19.75;;
39218;SDS011;24934;52.752;6.964;2023-07-31T13:16:16;20.65;;;18.70;;
39218;SDS011;24934;52.752;6.964;2023-07-31T13:18:42;21.67;;;19.67;;
39218;SDS011;24934;52.752;6.964;2023-07-31T13:21:07;22.67;;;20.40;;
39218;SDS011;24934;52.752;6.964;2023-07-31T13:23:33;22.38;;;20.48;;
39218;SDS011;24934;52.752;6.964;2023-07-31T13:25:58;20.92;;;19.02;;
39218;SDS011;24934;52.752;6.964;2023-07-31T13:28:24;21.25;;;19.30;;
39218;SDS011;24934;52.752;6.964;2023-07-31T13:30:50;22.65;;;20.33;;
39218;SDS011;24934;52.752;6.964;2023-07-31T13:33:15;21.95;;;19.95;;
39218;SDS011;24934;52.752;6.964;2023-07-31T13:35:41;20.73;;;18.67;;
39218;SDS011;24934;52.752;6.964;2023-07-31T13:38:06;19.67;;;17.98;;
39218;SDS011;24934;52.752;6.964;2023-07-31T13:40:32;19.63;;;17.83;;
39218;SDS011;24934;52.752;6.964;2023-07-31T13:42:58;22.20;;;19.92;;
39218;SDS011;24934;52.752;6.964;2023-07-31T13:45:23;21.50;;;19.60;;
39218;SDS011;24934;52.752;6.964;2023-07-31T13:47:49;21.63;;;19.60;;
39218;SDS011;24934;52.752;6.964;2023-07-31T13:50:16;22.05;;;19.95;;
39218;SDS011;24934;52.752;6.964;2023-07-31T13:52:44;22.20;;;20.02;;
39218;SDS011;24934;52.752;6.964;2023-07-31T13:55:09;21.83;;;19.83;;
39218;SDS011;24934;52.752;6.964;2023-07-31T13:57:35;23.15;;;20.75;;
39218;SDS011;24934;52.752;6.964;2023-07-31T14:00:00;24.40;;;22.05;;
39218;SDS011;24934;52.752;6.964;2023-07-31T14:02:27;25.25;;;22.75;;
39218;SDS011;24934;52.752;6.964;2023-07-31T14:04:52;24.25;;;22.05;;
39218;SDS011;24934;52.752;6.964;2023-07-31T14:07:18;24.77;;;22.15;;
39218;SDS011;24934;52.752;6.964;2023-07-31T14:09:44;23.92;;;21.83;;
39218;SDS011;24934;52.752;6.964;2023-07-31T14:12:09;21.88;;;19.88;;
39218;SDS011;24934;52.752;6.964;2023-07-31T14:14:35;21.35;;;19.25;;
39218;SDS011;24934;52.752;6.964;2023-07-31T14:17:01;20.25;;;18.27;;
39218;SDS011;24934;52.752;6.964;2023-07-31T14:19:27;19.52;;;17.63;;
39218;SDS011;24934;52.752;6.964;2023-07-31T14:21:53;18.20;;;16.42;;
39218;SDS011;24934;52.752;6.964;2023-07-31T14:24:18;18.52;;;16.83;;
39218;SDS011;24934;52.752;6.964;2023-07-31T14:26:44;18.40;;;16.52;;
39218;SDS011;24934;52.752;6.964;2023-07-31T14:29:10;17.65;;;15.93;;
39218;SDS011;24934;52.752;6.964;2023-07-31T14:31:35;18.98;;;16.42;;
39218;SDS011;24934;52.752;6.964;2023-07-31T14:34:01;18.58;;;16.98;;
39218;SDS011;24934;52.752;6.964;2023-07-31T14:36:26;17.75;;;16.05;;